x

Pembrey Sands Samos (03605) Weather Station

2:00pm - Wed 3rd Jun 2015 All times are BST. 1 hours from GMT.

  • Wind
    21mph
  • 空気 Temp 56°f
  • Sea Pressure 1024mb
  • Pembrey Sands Samos
  • Pembrey Sands Samos

More Historic Weather Station data

Upgrade to MSW Pro to gain access to the past 30 days of data for over 8000 Wavebouys and Weather Stations around the globe.

Join Pro

Comparision Forecast

View Surf forecast
   
Wed 06/03 2:00pm 21
mph
1024mb 56f
1:00pm 18
mph
1024mb 57f
12:00pm 18
mph
1023mb 57f
11:00am 14
mph
1022mb 56f
10:00am 10
mph
1022mb 55f
9:00am 15
mph
1021mb 54f
8:00am 18
mph
1019mb 53f
7:00am 17 29 mph 1018mb 51f
6:00am 22 32 mph 1017mb 51f
5:00am 24 32 mph 1015mb 51f
4:00am 22 33 mph 1014mb 52f
3:00am 24 37 mph 1014mb 53f
2:00am 25 36 mph 1013mb 53f
1:00am 26 38 mph 1012mb 53f
12:00am 30 38 mph 1011mb 54f
Tue 06/02 11:00pm 32 43 mph 1011mb 54f
10:00pm 31 39 mph 1010mb 54f
9:00pm 31 40 mph 1009mb 55f
8:00pm 30 38 mph 1009mb 55f
7:00pm 29 43 mph 1008mb 56f
6:00pm 32 40 mph 1007mb 57f
5:00pm 32 45 mph 1007mb 57f
4:00pm 31 40 mph 1006mb 57f
3:00pm 33 41 mph 1005mb 58f
2:00pm 31 43 mph 1004mb 58f
1:00pm 34 41 mph 1003mb 58f
12:00pm 30 41 mph 1002mb 57f
11:00am 34 41 mph 1001mb 56f
10:00am 31 41 mph 1000mb 56f
9:00am 31 38 mph 1000mb 55f
8:00am 31 40 mph 999mb 55f
7:00am 34 41 mph 999mb 55f
6:00am 32 39 mph 998mb 55f
5:00am 32 39 mph 998mb 55f
4:00am 32 39 mph 998mb 55f
3:00am 33 39 mph 998mb 55f
2:00am 33 40 mph 998mb 55f
1:00am 32 40 mph 998mb 55f
12:00am 34 44 mph 998mb 55f
Mon 06/01 11:00pm 38 52 mph 999mb 55f
10:00pm 43 53 mph 999mb 55f
9:00pm 44 63 mph 999mb 54f
8:00pm 49 66 mph 1000mb 53f
7:00pm 49 62 mph 1001mb 53f
6:00pm 45 56 mph 1002mb 53f
5:00pm 44
mph
1005mb 52f
4:00pm 39 49 mph 1006mb 52f
3:00pm 41 60 mph 1008mb 51f
2:00pm 41 54 mph 1009mb 52f
1:00pm 36 49 mph 1009mb 52f
12:00pm 29 44 mph 1010mb 52f
11:00am 36 48 mph 1011mb 52f
10:00am 29 39 mph 1011mb 53f
9:00am 28 34 mph 1012mb 53f
8:00am 29 36 mph 1012mb 53f
7:00am 26 32 mph 1012mb 52f
6:00am 18 38 mph 1012mb 50f
5:00am 24 34 mph 1013mb 51f
4:00am 19 30 mph 1013mb 51f
3:00am 21 32 mph 1013mb 50f
2:00am 23 32 mph 1013mb 51f
1:00am 24 32 mph 1013mb 50f
12:00am 24 34 mph 1013mb 50f
Sun 05/31 11:00pm 26 33 mph 1013mb 51f
10:00pm 22 31 mph 1013mb 51f
9:00pm 23 32 mph 1012mb 52f
8:00pm 25 36 mph 1012mb 54f
7:00pm 23 32 mph 1011mb 54f
6:00pm 24 32 mph 1011mb 55f
5:00pm 22 32 mph 1011mb 55f
4:00pm 21 30 mph 1010mb 54f
3:00pm 22 32 mph 1009mb 56f
2:00pm 21 29 mph 1009mb 54f
1:00pm 26 32 mph 1008mb 51f
12:00pm 25 32 mph 1007mb 53f
11:00am 25 31 mph 1006mb 52f
10:00am 17
mph
1005mb 52f
9:00am 21 30 mph 1005mb 52f
8:00am 16
mph
1004mb 52f
7:00am 18
mph
1003mb 54f
6:00am 23 31 mph 1002mb 54f
5:00am 26 32 mph 1002mb 55f
4:00am 26 32 mph 1003mb 55f
3:00am 28 38 mph 1003mb 56f
2:00am 31 39 mph 1004mb 55f
1:00am 28 37 mph 1005mb 55f
12:00am 26 36 mph 1006mb 55f
Sat 05/30 11:00pm 28 33 mph 1007mb 55f
10:00pm 22 30 mph 1009mb 54f
9:00pm 14
mph
1010mb 52f
8:00pm 14
mph
1010mb 54f
7:00pm 10
mph
1011mb 55f
6:00pm 10
mph
1012mb 54f
5:00pm 10
mph
1013mb 55f
4:00pm 11
mph
1014mb 55f
3:00pm 13
mph
1014mb 54f